Immokalee, Florida
Current Conditions -  °F | °C
As of 1:15 PM on Friday 21 Nov 2014 (Local Time) from KIMM Reporting Station
Overcast Overcast  
Wind Chill: 22°   Ceiling: 3400
Heat Index: 22°   Visibility: 7mi
Dew Point: 21°   Wind: 12mph
Humidity: 94%   Direction: 60°ENE
Pressure: 30.18"   Gusts: NA
Location:  26.42°N, 81.42°W
Report Text: KIMM 211815Z AUTO 06010KT 7SM OVC034 22/21 A3018 RMK A01 P000
Loading
Personal Weather Stations






























Interactive Weather Map New forecast layout! Learn more

10-Day Weather Forecast

Advertisements
Track Severe Weather on mobile